createdAt,value
2019-05-19T00:02:25.201Z,99.90
2019-05-19T00:04:55.645Z,99.90
2019-05-19T00:07:31.743Z,99.90
2019-05-19T00:10:05.555Z,99.90
2019-05-19T00:12:36.138Z,99.90
2019-05-19T00:15:06.849Z,99.90
2019-05-19T00:17:37.348Z,99.90
2019-05-19T00:20:09.063Z,99.90
2019-05-19T00:22:39.493Z,99.90
2019-05-19T00:25:12.601Z,99.90
2019-05-19T00:27:46.392Z,99.90
2019-05-19T00:30:22.419Z,99.90
2019-05-19T00:32:52.669Z,99.90
2019-05-19T00:35:24.317Z,99.90
2019-05-19T00:37:54.600Z,99.90
2019-05-19T00:40:25.331Z,99.90
2019-05-19T00:42:55.564Z,99.90
2019-05-19T00:45:27.431Z,99.90
2019-05-19T00:47:58.105Z,99.90
2019-05-19T00:50:29.208Z,99.90
2019-05-19T00:52:59.599Z,99.90
2019-05-19T00:55:30.836Z,99.90
2019-05-19T00:58:04.963Z,99.90
2019-05-19T01:00:35.058Z,99.90
2019-05-19T01:03:20.998Z,99.90
2019-05-19T01:05:54.322Z,99.90
2019-05-19T01:08:25.148Z,99.90
2019-05-19T01:10:55.293Z,99.90
2019-05-19T01:13:25.356Z,99.90
2019-05-19T01:15:58.767Z,99.90
2019-05-19T01:18:29.650Z,99.90
2019-05-19T01:21:01.218Z,99.90
2019-05-19T01:23:43.048Z,99.90
2019-05-19T01:26:13.270Z,99.90
2019-05-19T01:28:45.768Z,99.90
2019-05-19T01:31:16.782Z,99.90
2019-05-19T01:33:47.071Z,99.90
2019-05-19T01:36:20.037Z,99.90
2019-05-19T01:38:50.584Z,99.90
2019-05-19T01:41:29.966Z,99.90
2019-05-19T01:44:00.302Z,99.90
2019-05-19T01:46:32.458Z,99.90
2019-05-19T01:49:06.631Z,99.90
2019-05-19T01:51:38.420Z,99.90
2019-05-19T01:54:10.237Z,99.90
2019-05-19T01:56:41.113Z,99.90
2019-05-19T01:59:11.402Z,99.90
2019-05-19T02:01:41.770Z,99.90
2019-05-19T02:04:12.186Z,99.90
2019-05-19T02:06:42.388Z,99.90
2019-05-19T02:09:14.505Z,99.90
2019-05-19T02:11:48.020Z,99.90
2019-05-19T02:14:18.371Z,99.90
2019-05-19T02:16:53.696Z,99.90
2019-05-19T02:19:25.381Z,99.90
2019-05-19T02:21:55.889Z,99.90
2019-05-19T02:24:32.011Z,99.90
2019-05-19T02:27:02.374Z,99.90
2019-05-19T02:29:33.070Z,99.90
2019-05-19T02:32:06.390Z,99.90
2019-05-19T02:34:37.045Z,99.90
2019-05-19T02:37:07.905Z,99.90
2019-05-19T02:39:39.732Z,99.90
2019-05-19T02:42:10.731Z,99.90
2019-05-19T02:44:44.837Z,99.90
2019-05-19T02:47:17.610Z,99.90
2019-05-19T02:49:49.232Z,99.90
2019-05-19T02:52:23.587Z,99.90
2019-05-19T02:54:54.926Z,99.90
2019-05-19T02:57:27.126Z,99.90
2019-05-19T02:59:58.575Z,99.90
2019-05-19T03:02:28.948Z,99.90
2019-05-19T03:04:59.633Z,99.90
2019-05-19T03:07:33.011Z,99.90
2019-05-19T03:10:07.331Z,99.90
2019-05-19T03:12:37.450Z,99.90
2019-05-19T03:15:08.820Z,99.90
2019-05-19T03:17:39.617Z,99.90
2019-05-19T03:20:11.538Z,99.90
2019-05-19T03:22:42.023Z,99.90
2019-05-19T03:25:12.941Z,99.90
2019-05-19T03:27:43.724Z,99.90
2019-05-19T03:30:37.667Z,99.90
2019-05-19T03:33:08.214Z,99.90
2019-05-19T03:35:41.900Z,99.90
2019-05-19T03:38:12.056Z,99.90
2019-05-19T03:40:42.390Z,99.90
2019-05-19T03:43:12.761Z,99.90
2019-05-19T03:45:43.649Z,99.90
2019-05-19T03:48:16.168Z,99.90
2019-05-19T04:20:13.964Z,99.90
2019-05-19T04:22:44.290Z,99.90
2019-05-19T04:25:14.574Z,99.90
2019-05-19T04:27:45.309Z,99.90
2019-05-19T04:30:15.982Z,99.90
2019-05-19T04:32:46.237Z,99.90
2019-05-19T04:35:17.263Z,99.90
2019-05-19T04:37:47.572Z,99.90
2019-05-19T04:40:17.809Z,99.90
2019-05-19T04:42:51.429Z,99.90
2019-05-19T04:47:42.873Z,99.90
2019-05-19T04:50:14.537Z,99.90
2019-05-19T04:52:47.640Z,99.90
2019-05-19T04:55:19.469Z,99.90
2019-05-19T04:57:49.664Z,99.90
2019-05-19T05:00:20.546Z,99.90
2019-05-19T05:02:50.805Z,99.90
2019-05-19T05:05:21.238Z,99.90
2019-05-19T05:07:51.578Z,99.90
2019-05-19T05:10:21.927Z,99.90
2019-05-19T05:12:52.093Z,99.90
2019-05-19T05:15:22.808Z,99.90
2019-05-19T05:17:52.922Z,99.90
2019-05-19T05:20:23.207Z,99.90
2019-05-19T05:22:53.888Z,99.90
2019-05-19T05:25:24.167Z,99.90
2019-05-19T05:27:54.650Z,99.90
2019-05-19T05:30:25.861Z,99.90
2019-05-19T05:32:56.343Z,99.90
2019-05-19T05:35:26.563Z,99.90
2019-05-19T05:37:57.391Z,99.90
2019-05-19T05:40:28.438Z,99.90
2019-05-19T05:42:58.799Z,99.90
2019-05-19T05:45:29.591Z,99.90
2019-05-19T05:48:02.185Z,99.90
2019-05-19T05:50:33.656Z,99.90
2019-05-19T05:53:05.987Z,99.90
2019-05-19T05:55:43.627Z,99.90
2019-05-19T05:58:17.357Z,99.90
2019-05-19T06:00:49.328Z,99.90
2019-05-19T06:03:19.831Z,99.90
2019-05-19T06:05:49.975Z,99.90
2019-05-19T06:08:24.223Z,99.90
2019-05-19T06:10:59.735Z,99.90
2019-05-19T06:13:29.613Z,99.90
2019-05-19T06:16:00.453Z,99.90
2019-05-19T06:18:30.948Z,99.90
2019-05-19T06:21:01.274Z,99.90
2019-05-19T06:23:32.047Z,99.90
2019-05-19T06:26:02.577Z,99.90
2019-05-19T06:28:33.073Z,99.90
2019-05-19T06:31:06.593Z,99.90
2019-05-19T06:33:36.804Z,99.90
2019-05-19T06:36:07.374Z,99.90
2019-05-19T06:38:37.676Z,99.90
2019-05-19T06:41:08.161Z,99.90
2019-05-19T06:43:38.428Z,99.90
2019-05-19T06:46:08.914Z,99.90
2019-05-19T06:48:39.132Z,99.90
2019-05-19T06:51:10.421Z,99.90
2019-05-19T06:53:43.514Z,99.90
2019-05-19T06:56:20.873Z,99.90
2019-05-19T06:58:51.326Z,99.90
2019-05-19T07:01:21.792Z,99.90
2019-05-19T07:03:52.140Z,99.90
2019-05-19T07:06:25.079Z,99.90
2019-05-19T07:08:58.220Z,99.90
2019-05-19T07:11:28.673Z,99.90
2019-05-19T07:14:03.078Z,99.90
2019-05-19T07:16:33.718Z,99.90
2019-05-19T07:19:04.526Z,99.90
2019-05-19T07:21:38.123Z,99.90
2019-05-19T07:24:08.580Z,99.90
2019-05-19T07:26:42.024Z,99.90
2019-05-19T07:29:12.272Z,99.90
2019-05-19T07:31:43.029Z,99.90
2019-05-19T07:34:13.388Z,99.90
2019-05-19T07:36:43.788Z,99.90
2019-05-19T07:39:14.353Z,99.90
2019-05-19T07:41:44.553Z,99.90
2019-05-19T07:44:16.263Z,99.90
2019-05-19T07:46:49.830Z,99.90
2019-05-19T07:49:22.246Z,99.90
2019-05-19T07:51:56.487Z,99.90
2019-05-19T07:54:30.263Z,99.90
2019-05-19T07:57:02.433Z,99.90
2019-05-19T07:59:33.373Z,99.90
2019-05-19T08:02:07.443Z,99.90
2019-05-19T08:04:42.223Z,99.90
2019-05-19T08:07:17.963Z,99.90
2019-05-19T08:09:53.250Z,99.90
2019-05-19T08:12:28.164Z,99.90
2019-05-19T08:14:59.697Z,99.90
2019-05-19T08:17:38.446Z,99.90
2019-05-19T08:20:11.801Z,99.90
2019-05-19T08:22:42.725Z,99.90
2019-05-19T08:25:13.455Z,99.90
2019-05-19T08:27:48.857Z,99.90
2019-05-19T08:30:20.308Z,99.90
2019-05-19T08:32:53.368Z,99.90
2019-05-19T08:35:24.024Z,99.90
2019-05-19T08:37:54.626Z,99.90
2019-05-19T08:40:30.086Z,99.90
2019-05-19T08:43:05.152Z,99.90
2019-05-19T08:45:41.583Z,99.90
2019-05-19T08:48:12.386Z,99.90
2019-05-19T08:50:42.794Z,99.90
2019-05-19T08:53:13.587Z,99.90
2019-05-19T08:55:44.807Z,99.90
2019-05-19T08:58:15.779Z,99.90
2019-05-19T09:00:46.542Z,99.90
2019-05-19T09:03:24.725Z,99.90
2019-05-19T09:06:04.454Z,99.90
2019-05-19T09:08:45.734Z,99.90
2019-05-19T09:11:18.647Z,99.90
2019-05-19T09:13:58.724Z,99.90
2019-05-19T09:16:29.631Z,99.90
2019-05-19T09:19:03.465Z,99.90
2019-05-19T09:21:39.979Z,99.90
2019-05-19T09:24:10.768Z,99.90
2019-05-19T09:26:46.892Z,99.90
2019-05-19T09:29:14.744Z,99.90
2019-05-19T09:31:50.597Z,99.90
2019-05-19T09:34:23.019Z,99.90
2019-05-19T09:36:57.188Z,99.90
2019-05-19T09:39:31.642Z,99.90
2019-05-19T09:42:05.301Z,99.90
2019-05-19T09:44:36.686Z,99.90
2019-05-19T09:47:08.065Z,99.90
2019-05-19T09:49:39.172Z,99.90
2019-05-19T09:52:11.050Z,99.90
2019-05-19T09:54:45.187Z,99.90
2019-05-19T09:57:14.352Z,99.90
2019-05-19T09:59:45.745Z,99.90
2019-05-19T10:02:16.772Z,99.90
2019-05-19T10:04:50.115Z,99.90
2019-05-19T10:07:33.514Z,99.90
2019-05-19T10:10:08.418Z,99.90
2019-05-19T10:12:45.058Z,99.90
2019-05-19T10:15:21.864Z,99.90
2019-05-19T10:17:55.107Z,99.90
2019-05-19T10:20:29.266Z,99.90
2019-05-19T10:23:09.362Z,99.90
2019-05-19T10:25:42.239Z,99.90
2019-05-19T10:28:21.518Z,99.90
2019-05-19T10:30:57.696Z,99.90
2019-05-19T10:33:29.579Z,99.90
2019-05-19T10:36:07.919Z,99.90
2019-05-19T10:38:40.349Z,99.90
2019-05-19T10:41:15.229Z,99.90
2019-05-19T10:43:50.175Z,99.90
2019-05-19T10:46:25.360Z,99.90
2019-05-19T10:48:59.297Z,99.90
2019-05-19T10:51:37.473Z,99.90
2019-05-19T10:54:08.766Z,99.90
2019-05-19T10:56:53.979Z,99.90
2019-05-19T10:59:25.262Z,99.90
2019-05-19T11:01:57.953Z,99.90
2019-05-19T11:04:31.659Z,99.50
2019-05-19T11:07:03.154Z,97.50
2019-05-19T11:09:40.061Z,97.80
2019-05-19T11:12:17.113Z,96.00
2019-05-19T11:14:59.716Z,96.40
2019-05-19T11:17:36.292Z,95.00
2019-05-19T11:20:08.091Z,95.80
2019-05-19T11:22:39.630Z,92.90
2019-05-19T11:25:10.842Z,92.30
2019-05-19T11:27:43.973Z,93.20
2019-05-19T11:30:24.935Z,93.00
2019-05-19T11:32:55.990Z,95.60
2019-05-19T11:35:28.967Z,95.90
2019-05-19T11:38:03.106Z,94.30
2019-05-19T11:40:50.794Z,93.60
2019-05-19T11:43:23.304Z,94.10
2019-05-19T11:45:59.490Z,94.50
2019-05-19T11:48:30.504Z,96.00
2019-05-19T11:51:15.487Z,94.40
2019-05-19T11:53:47.731Z,93.50
2019-05-19T11:56:24.395Z,93.90
2019-05-19T11:58:56.727Z,95.40
2019-05-19T12:01:30.685Z,95.30
2019-05-19T12:04:01.431Z,94.90
2019-05-19T12:06:39.592Z,93.30
2019-05-19T12:09:08.509Z,93.10
2019-05-19T12:11:47.836Z,92.90
2019-05-19T12:14:18.496Z,92.30
2019-05-19T12:17:06.515Z,93.50
2019-05-19T12:19:39.334Z,92.90
2019-05-19T12:22:16.017Z,93.90
2019-05-19T12:24:50.695Z,94.30
2019-05-19T12:27:26.787Z,93.30
2019-05-19T12:30:05.283Z,94.00
2019-05-19T12:32:42.154Z,93.80
2019-05-19T12:35:19.296Z,93.30
2019-05-19T12:37:59.407Z,93.30
2019-05-19T12:40:30.351Z,92.30
2019-05-19T12:43:09.190Z,92.00
2019-05-19T12:46:02.100Z,91.30
2019-05-19T12:48:42.746Z,91.50
2019-05-19T12:51:16.449Z,90.30
2019-05-19T12:53:54.942Z,88.50
2019-05-19T12:56:39.496Z,87.00
2019-05-19T12:59:08.942Z,90.50
2019-05-19T13:01:49.735Z,90.00
2019-05-19T13:04:26.172Z,89.90
2019-05-19T13:07:03.700Z,86.60
2019-05-19T13:09:36.870Z,90.00
2019-05-19T13:12:21.856Z,89.30
2019-05-19T13:14:52.762Z,90.00
2019-05-19T13:17:31.368Z,90.10
2019-05-19T13:20:03.352Z,88.50
2019-05-19T13:22:57.282Z,90.80
2019-05-19T13:25:25.529Z,90.70
2019-05-19T13:27:59.231Z,88.20
2019-05-19T13:30:35.037Z,87.40
2019-05-19T13:33:07.312Z,88.00
2019-05-19T13:35:39.570Z,84.30
2019-05-19T13:38:13.594Z,85.80
2019-05-19T13:40:46.438Z,85.60
2019-05-19T13:43:26.364Z,89.50
2019-05-19T13:45:57.259Z,90.30
2019-05-19T13:48:42.476Z,93.50
2019-05-19T13:51:15.071Z,99.90
2019-05-19T13:53:45.982Z,99.90
2019-05-19T13:56:19.183Z,99.90
2019-05-19T13:58:49.931Z,99.90
2019-05-19T14:01:44.360Z,99.90
2019-05-19T14:04:15.968Z,99.90
2019-05-19T14:06:47.363Z,99.90
2019-05-19T14:09:18.417Z,99.90
2019-05-19T14:11:49.753Z,99.90
2019-05-19T14:14:31.711Z,99.90
2019-05-19T14:17:07.134Z,99.90
2019-05-19T14:19:42.393Z,99.90
2019-05-19T14:22:19.931Z,99.90
2019-05-19T14:25:00.580Z,99.90
2019-05-19T14:27:33.100Z,99.90
2019-05-19T14:30:06.762Z,99.90
2019-05-19T14:32:45.015Z,99.90
2019-05-19T14:35:26.228Z,99.90
2019-05-19T14:38:09.714Z,99.90
2019-05-19T14:40:46.375Z,99.90
2019-05-19T14:43:22.361Z,99.90
2019-05-19T14:46:01.596Z,99.90
2019-05-19T14:48:47.430Z,99.90
2019-05-19T14:51:32.072Z,99.90
2019-05-19T14:54:06.470Z,99.90
2019-05-19T14:56:47.130Z,99.90
2019-05-19T14:59:18.753Z,99.90
2019-05-19T15:01:52.940Z,99.90
2019-05-19T15:04:24.021Z,99.90
2019-05-19T15:06:59.154Z,99.90
2019-05-19T15:09:48.565Z,99.90
2019-05-19T15:12:32.012Z,99.90
2019-05-19T15:15:11.550Z,99.90
2019-05-19T15:17:56.990Z,99.90
2019-05-19T15:20:35.887Z,99.90
2019-05-19T15:23:40.730Z,99.90
2019-05-19T15:26:22.176Z,99.90
2019-05-19T15:29:10.836Z,99.90
2019-05-19T15:31:55.543Z,99.90
2019-05-19T15:34:28.525Z,99.90
2019-05-19T15:37:02.946Z,99.90
2019-05-19T15:39:37.093Z,99.90
2019-05-19T15:42:21.889Z,99.90
2019-05-19T15:45:02.130Z,99.90
2019-05-19T15:47:35.049Z,99.90
2019-05-19T15:50:16.714Z,99.90
2019-05-19T15:52:52.090Z,99.90
2019-05-19T15:55:26.854Z,99.90
2019-05-19T15:57:57.615Z,99.90
2019-05-19T16:00:33.381Z,99.90
2019-05-19T16:03:32.552Z,99.90
2019-05-19T16:06:14.562Z,99.90
2019-05-19T16:08:46.116Z,99.90
2019-05-19T16:11:26.371Z,99.90
2019-05-19T16:14:19.339Z,99.90
2019-05-19T16:16:58.114Z,99.90
2019-05-19T16:19:37.348Z,99.90
2019-05-19T16:22:14.479Z,99.90
2019-05-19T16:24:48.774Z,99.90
2019-05-19T16:27:25.342Z,99.90
2019-05-19T16:30:24.067Z,99.90
2019-05-19T16:33:00.716Z,99.90
2019-05-19T16:35:32.007Z,99.90
2019-05-19T16:38:05.765Z,99.90
2019-05-19T16:40:40.125Z,99.90
2019-05-19T16:43:14.933Z,99.90
2019-05-19T16:45:58.118Z,99.90
2019-05-19T16:48:51.357Z,99.90
2019-05-19T16:51:37.707Z,99.90
2019-05-19T16:54:16.088Z,99.90
2019-05-19T16:56:58.129Z,99.90
2019-05-19T16:59:34.867Z,99.90
2019-05-19T17:02:20.202Z,99.90
2019-05-19T17:04:56.562Z,99.90
2019-05-19T17:07:34.886Z,99.90
2019-05-19T17:10:13.974Z,99.90
2019-05-19T17:12:46.584Z,99.90
2019-05-19T17:15:22.211Z,99.90
2019-05-19T17:18:09.023Z,99.90
2019-05-19T17:20:50.666Z,99.90
2019-05-19T17:23:27.163Z,99.90
2019-05-19T17:26:02.716Z,99.90
2019-05-19T17:28:34.229Z,99.90
2019-05-19T17:31:17.188Z,99.90
2019-05-19T17:33:53.086Z,99.90
2019-05-19T17:36:23.525Z,99.90
2019-05-19T17:38:55.108Z,99.90
2019-05-19T17:41:34.998Z,99.90
2019-05-19T17:44:07.904Z,99.90
2019-05-19T17:46:39.911Z,99.90
2019-05-19T17:49:10.924Z,99.90
2019-05-19T17:51:52.333Z,99.90
2019-05-19T17:54:26.360Z,99.90
2019-05-19T17:57:00.769Z,99.90
2019-05-19T17:59:38.910Z,99.90
2019-05-19T18:02:15.240Z,99.90
2019-05-19T18:04:46.075Z,99.90
2019-05-19T18:07:20.628Z,99.90
2019-05-19T18:09:57.518Z,99.90
2019-05-19T18:12:32.024Z,99.90
2019-05-19T18:15:06.148Z,99.90
2019-05-19T18:20:42.529Z,99.90
2019-05-19T18:23:42.476Z,99.90
2019-05-19T18:26:44.609Z,99.90
2019-05-19T18:29:31.310Z,99.90
2019-05-19T18:32:10.816Z,99.90
2019-05-19T18:34:44.551Z,99.90
2019-05-19T18:37:16.487Z,99.90
2019-05-19T18:39:52.288Z,99.90
2019-05-19T18:42:33.222Z,99.90
2019-05-19T18:45:07.757Z,99.90
2019-05-19T18:48:05.450Z,99.90
2019-05-19T18:50:37.802Z,99.90
2019-05-19T18:53:20.317Z,99.90
2019-05-19T18:56:00.642Z,99.90
2019-05-19T18:58:42.800Z,99.90
2019-05-19T19:01:15.573Z,99.90
2019-05-19T19:03:59.622Z,99.90
2019-05-19T19:06:35.445Z,99.90
2019-05-19T19:09:11.519Z,99.90
2019-05-19T19:11:59.062Z,99.90
2019-05-19T19:14:32.854Z,99.90
2019-05-19T19:17:03.980Z,99.90
2019-05-19T19:19:36.657Z,99.90
2019-05-19T19:22:09.801Z,99.90
2019-05-19T19:24:40.931Z,99.90
2019-05-19T19:27:16.967Z,99.90
2019-05-19T19:30:02.500Z,99.90
2019-05-19T19:32:25.541Z,99.90
2019-05-19T19:34:56.213Z,99.90
2019-05-19T19:37:27.606Z,99.90
2019-05-19T19:40:02.390Z,99.90
2019-05-19T19:42:33.731Z,99.90
2019-05-19T19:45:04.557Z,99.90
2019-05-19T19:47:40.304Z,99.90
2019-05-19T19:50:19.988Z,99.90
2019-05-19T19:52:52.668Z,99.90
2019-05-19T19:55:24.577Z,99.90
2019-05-19T19:58:01.080Z,99.90
2019-05-19T20:00:59.375Z,99.90
2019-05-19T20:03:39.438Z,99.90
2019-05-19T20:06:06.680Z,99.90
2019-05-19T20:08:43.019Z,99.90
2019-05-19T20:11:18.416Z,99.90
2019-05-19T20:13:58.313Z,99.90
2019-05-19T20:16:47.862Z,99.90
2019-05-19T20:19:23.994Z,99.90
2019-05-19T20:21:55.558Z,99.90
2019-05-19T20:24:27.960Z,99.90
2019-05-19T20:26:59.143Z,99.90
2019-05-19T20:29:34.866Z,99.90
2019-05-19T20:32:11.393Z,99.90
2019-05-19T20:34:47.275Z,99.90
2019-05-19T20:37:18.138Z,99.90
2019-05-19T20:39:52.695Z,99.90
2019-05-19T20:42:23.593Z,99.90
2019-05-19T20:45:03.575Z,99.90
2019-05-19T20:47:38.051Z,99.90
2019-05-19T20:50:10.081Z,99.90
2019-05-19T20:52:51.874Z,99.90
2019-05-19T20:55:22.470Z,99.90
2019-05-19T20:58:03.879Z,99.90
2019-05-19T21:00:49.130Z,99.90
2019-05-19T21:03:10.313Z,99.90
2019-05-19T21:05:44.947Z,99.90
2019-05-19T21:08:15.260Z,99.90
2019-05-19T21:10:46.290Z,99.90
2019-05-19T21:13:17.238Z,99.90
2019-05-19T21:15:47.690Z,99.90
2019-05-19T21:18:18.464Z,99.90
2019-05-19T21:20:49.959Z,99.90
2019-05-19T21:23:20.654Z,99.90
2019-05-19T21:25:51.628Z,99.90
2019-05-19T21:28:26.003Z,99.90
2019-05-19T21:31:05.883Z,99.90
2019-05-19T21:33:41.002Z,99.90
2019-05-19T21:36:17.482Z,99.90
2019-05-19T21:39:15.254Z,99.90
2019-05-19T21:41:50.770Z,99.90
2019-05-19T21:44:34.194Z,99.90
2019-05-19T21:47:04.553Z,99.90
2019-05-19T21:49:37.820Z,99.90
2019-05-19T21:52:08.693Z,99.90
2019-05-19T21:54:39.161Z,99.90
2019-05-19T21:57:09.494Z,99.90
2019-05-19T21:59:39.663Z,99.90
2019-05-19T22:02:11.958Z,99.90
2019-05-19T22:04:42.218Z,99.90
2019-05-19T22:07:23.860Z,99.90
2019-05-19T22:09:54.934Z,99.90
2019-05-19T22:12:25.336Z,99.90
2019-05-19T22:14:56.874Z,99.90
2019-05-19T22:17:27.145Z,99.90
2019-05-19T22:20:00.818Z,99.90
2019-05-19T22:22:46.131Z,99.90
2019-05-19T22:25:22.054Z,99.90
2019-05-19T22:27:52.279Z,99.90
2019-05-19T22:30:23.434Z,99.90
2019-05-19T22:32:54.075Z,99.90
2019-05-19T22:35:26.376Z,99.90
2019-05-19T22:37:57.008Z,99.90
2019-05-19T22:40:31.371Z,99.90
2019-05-19T22:43:01.735Z,99.90
2019-05-19T22:45:33.130Z,99.90
2019-05-19T22:48:06.938Z,99.90
2019-05-19T22:50:39.191Z,99.90
2019-05-19T22:53:12.539Z,99.90
2019-05-19T22:55:44.657Z,99.90
2019-05-19T22:58:16.379Z,99.90
2019-05-19T23:00:50.321Z,99.90
2019-05-19T23:03:21.250Z,99.90
2019-05-19T23:05:51.800Z,99.90
2019-05-19T23:08:22.170Z,99.90
2019-05-19T23:10:52.600Z,99.90
2019-05-19T23:13:23.300Z,99.90
2019-05-19T23:15:53.935Z,99.90
2019-05-19T23:18:24.808Z,99.90
2019-05-19T23:20:56.402Z,99.90
2019-05-19T23:23:28.602Z,99.90
2019-05-19T23:25:58.911Z,99.90
2019-05-19T23:28:31.659Z,99.90
2019-05-19T23:31:02.094Z,99.90
2019-05-19T23:33:32.355Z,99.90
2019-05-19T23:36:03.133Z,99.90
2019-05-19T23:38:35.068Z,99.90
2019-05-19T23:41:05.658Z,99.90
2019-05-19T23:43:35.806Z,99.90
2019-05-19T23:46:06.225Z,99.90
2019-05-19T23:48:36.426Z,99.90
2019-05-19T23:51:07.258Z,99.90
2019-05-19T23:53:38.411Z,99.90
2019-05-19T23:56:09.619Z,99.90
2019-05-19T23:58:40.007Z,99.90
